Terminal Aerodrome Forecast
Issued by NWS Wakefield, VA

Home | Current Version | Previous Version | Text Only | Print | Product List | Glossary On
Versions: 1 2 3 4 5 6 7 8 9 10 11 12 13
000
FTUS41 KAKQ 231728
TAFECG
TAF
KECG 231728Z 2318/2418 11015KT P6SM BKN150
     FM240400 10010KT P6SM VCSH OVC100
     FM240700 10011KT 6SM -RA OVC050
     FM241100 11012G20KT 6SM -RA OVC025
     FM241400 11018G27KT 4SM RA OVC015=

USA.gov is the U.S. government's official web portal to all federal, state and local government web resources and services.